Time;durP1;ratioP1;P1;durP2;ratioP2;P2;SDS_P1;SDS_P2;PMS_P1;PMS_P2;Temp;Humidity;BMP_temperature;BMP_pressure;BME280_temperature;BME280_humidity;BME280_pressure;Samples;Min_cycle;Max_cycle;Signal;HPM_P1;HPM_P2
2022/06/17 00:01:47;;;;;;;;;;;21.40;95.10;;;;;;4960420;28;20330;-78
2022/06/17 00:04:13;;;;;;;;;;;21.40;95.10;;;;;;4977672;28;19929;-79
2022/06/17 00:06:42;;;;;;;;;;;21.10;94.90;;;;;;4978118;28;19916;-78
2022/06/17 00:09:10;;;;;;;;;;;20.90;95.90;;;;;;4977704;28;19918;-78
2022/06/17 00:11:37;;;;;;;;;;;20.90;96.20;;;;;;4977757;28;19910;-80
2022/06/17 00:14:05;;;;;;;;;;;20.80;96.50;;;;;;4977683;28;19910;-79
2022/06/17 00:16:31;;;;;;;;;;;20.90;96.60;;;;;;4977528;28;19917;-78
2022/06/17 00:18:57;;;;;;;;;;;21.00;96.00;;;;;;4977795;28;19914;-78
2022/06/17 00:21:24;;;;;;;;;;;21.10;95.60;;;;;;4977531;28;20291;-79
2022/06/17 00:23:50;;;;;;;;;;;20.80;95.90;;;;;;4977451;28;19910;-78
2022/06/17 00:26:16;;;;;;;;;;;20.70;96.70;;;;;;4977714;28;20337;-79
2022/06/17 00:28:41;;;;;;;;;;;20.60;96.90;;;;;;4977485;28;19910;-79
2022/06/17 00:31:07;;;;;;;;;;;20.50;97.00;;;;;;4977322;28;20430;-79
2022/06/17 00:33:33;;;;;;;;;;;20.60;96.90;;;;;;4977292;28;19917;-79
2022/06/17 00:35:59;;;;;;;;;;;20.50;96.90;;;;;;4977214;28;19910;-79
2022/06/17 00:38:26;;;;;;;;;;;20.50;97.20;;;;;;4977222;28;20400;-79
2022/06/17 00:40:52;;;;;;;;;;;20.20;98.40;;;;;;4977287;28;19910;-78
2022/06/17 00:43:35;;;;;;;;;;;20.20;98.70;;;;;;4977371;28;19910;-78
2022/06/17 00:46:07;;;;;;;;;;;20.20;98.50;;;;;;4977349;28;20389;-79
2022/06/17 00:48:36;;;;;;;;;;;20.40;98.40;;;;;;4976750;28;19923;-79
2022/06/17 00:51:18;;;;;;;;;;;20.50;98.40;;;;;;4976981;28;19918;-79
2022/06/17 00:53:54;;;;;;;;;;;20.30;99.20;;;;;;4959580;28;19922;-78
2022/06/17 00:56:21;;;;;;;;;;;20.30;98.90;;;;;;4976838;28;19917;-78
2022/06/17 00:58:55;;;;;;;;;;;20.50;98.30;;;;;;4976874;28;19917;-79
2022/06/17 01:01:22;;;;;;;;;;;20.50;97.60;;;;;;4976376;28;19910;-78
2022/06/17 01:03:49;;;;;;;;;;;20.30;97.80;;;;;;4977183;28;19917;-78
2022/06/17 01:06:16;;;;;;;;;;;20.30;97.90;;;;;;4959089;28;20373;-78
2022/06/17 01:11:32;;;;;;;;;;;20.10;99.10;;;;;;4976323;28;19919;-76
2022/06/17 01:13:59;;;;;;;;;;;20.20;98.70;;;;;;4976944;28;19917;-78
2022/06/17 01:16:30;;;;;;;;;;;20.30;98.40;;;;;;4976444;28;20322;-79
2022/06/17 01:18:58;;;;;;;;;;;20.30;98.20;;;;;;4976447;28;19917;-79
2022/06/17 01:21:28;;;;;;;;;;;20.30;97.40;;;;;;4976496;28;20005;-79
2022/06/17 01:23:54;;;;;;;;;;;20.10;98.00;;;;;;4958929;28;20005;-79
2022/06/17 01:26:19;;;;;;;;;;;19.80;99.00;;;;;;4976226;28;20363;-78
2022/06/17 01:28:45;;;;;;;;;;;19.80;99.20;;;;;;4976232;28;20004;-79
2022/06/17 01:31:11;;;;;;;;;;;19.70;99.00;;;;;;4976149;28;19917;-79
2022/06/17 01:33:41;;;;;;;;;;;19.80;98.70;;;;;;4976217;28;19916;-78
2022/06/17 01:36:18;;;;;;;;;;;19.80;98.60;;;;;;4976086;28;20009;-78
2022/06/17 01:38:46;;;;;;;;;;;19.70;98.60;;;;;;4976283;28;19968;-77
2022/06/17 01:41:14;;;;;;;;;;;19.70;98.80;;;;;;4976194;28;19910;-78
2022/06/17 01:43:42;;;;;;;;;;;19.60;99.30;;;;;;4958634;28;19910;-78
2022/06/17 01:46:11;;;;;;;;;;;19.50;99.70;;;;;;4975870;28;19914;-78
2022/06/17 01:48:39;;;;;;;;;;;19.60;99.40;;;;;;4975562;28;19929;-79
2022/06/17 01:51:06;;;;;;;;;;;19.60;99.50;;;;;;4975832;28;20390;-79
2022/06/17 01:53:33;;;;;;;;;;;19.20;99.90;;;;;;4975873;28;19917;-78
2022/06/17 01:56:04;;;;;;;;;;;18.80;99.90;;;;;;4975748;28;19962;-78
2022/06/17 01:58:33;;;;;;;;;;;18.60;99.90;;;;;;4975963;28;19911;-77
2022/06/17 02:01:00;;;;;;;;;;;18.60;99.90;;;;;;4975647;28;19970;-78
2022/06/17 02:03:28;;;;;;;;;;;19.10;99.90;;;;;;4975571;28;19949;-77
2022/06/17 02:05:57;;;;;;;;;;;19.30;99.90;;;;;;4975366;28;19972;-77
2022/06/17 02:08:22;;;;;;;;;;;19.30;99.90;;;;;;4975572;28;19911;-78
2022/06/17 02:10:49;;;;;;;;;;;19.30;99.90;;;;;;4958122;28;20274;-77
2022/06/17 02:13:15;;;;;;;;;;;19.20;99.90;;;;;;4974742;28;20374;-79
2022/06/17 02:15:42;;;;;;;;;;;19.00;99.90;;;;;;4975440;28;19927;-78
2022/06/17 02:18:11;;;;;;;;;;;18.70;99.90;;;;;;4975495;28;19998;-79
2022/06/17 02:20:37;;;;;;;;;;;18.40;99.90;;;;;;4957812;28;20337;-79
2022/06/17 02:23:03;;;;;;;;;;;18.20;99.90;;;;;;4975309;28;20399;-78
2022/06/17 02:25:30;;;;;;;;;;;18.50;99.90;;;;;;4975578;28;19915;-78
2022/06/17 02:27:57;;;;;;;;;;;18.80;99.90;;;;;;4975384;28;20004;-78
2022/06/17 02:30:24;;;;;;;;;;;18.90;99.90;;;;;;4975211;28;19969;-78
2022/06/17 02:32:50;;;;;;;;;;;19.10;99.90;;;;;;4975133;28;19914;-77
2022/06/17 02:35:26;;;;;;;;;;;19.30;99.90;;;;;;4975070;28;19954;-79
2022/06/17 02:37:52;;;;;;;;;;;19.30;99.90;;;;;;4975367;28;19910;-79
2022/06/17 02:40:31;;;;;;;;;;;19.20;99.90;;;;;;4975087;28;19918;-79
2022/06/17 02:43:01;;;;;;;;;;;19.10;99.90;;;;;;4975073;28;19914;-79
2022/06/17 02:45:29;;;;;;;;;;;18.90;99.90;;;;;;4975241;28;19914;-77
2022/06/17 02:47:55;;;;;;;;;;;19.00;99.90;;;;;;4974729;28;19926;-78
2022/06/17 02:50:22;;;;;;;;;;;19.00;99.90;;;;;;4974999;28;20260;-79
2022/06/17 02:52:48;;;;;;;;;;;18.90;99.90;;;;;;4974928;28;19917;-77
2022/06/17 02:55:32;;;;;;;;;;;18.80;99.90;;;;;;4974833;28;19914;-80
2022/06/17 02:58:06;;;;;;;;;;;18.90;99.90;;;;;;4974836;28;19911;-77
2022/06/17 03:00:32;;;;;;;;;;;18.70;99.90;;;;;;4974920;28;20362;-78
2022/06/17 03:03:01;;;;;;;;;;;18.60;99.90;;;;;;4974851;28;19910;-78
2022/06/17 03:05:29;;;;;;;;;;;18.60;99.90;;;;;;4974902;28;19914;-77
2022/06/17 03:07:55;;;;;;;;;;;18.70;99.90;;;;;;4974734;28;19931;-77
2022/06/17 03:10:34;;;;;;;;;;;18.50;99.90;;;;;;4974780;28;20386;-79
2022/06/17 03:13:20;;;;;;;;;;;18.40;99.90;;;;;;4957195;28;19946;-79
2022/06/17 03:15:47;;;;;;;;;;;18.50;99.90;;;;;;4974278;28;19910;-78
2022/06/17 03:18:13;;;;;;;;;;;18.40;99.90;;;;;;4974734;28;19910;-78
2022/06/17 03:20:40;;;;;;;;;;;18.40;99.90;;;;;;4974769;28;19916;-78
2022/06/17 03:23:08;;;;;;;;;;;18.50;99.90;;;;;;4974615;28;19910;-77
2022/06/17 03:25:40;;;;;;;;;;;18.40;99.90;;;;;;4978650;28;20029;-79
2022/06/17 03:28:10;;;;;;;;;;;18.10;99.90;;;;;;4978492;28;20388;-78
2022/06/17 03:30:40;;;;;;;;;;;18.20;99.90;;;;;;4978915;28;19917;-78
2022/06/17 03:33:10;;;;;;;;;;;18.30;99.90;;;;;;4978575;28;19910;-78
2022/06/17 03:35:37;;;;;;;;;;;18.30;99.90;;;;;;4978364;28;19910;-78
2022/06/17 03:38:22;;;;;;;;;;;18.30;99.90;;;;;;4978435;28;19910;-79
2022/06/17 03:40:51;;;;;;;;;;;18.30;99.90;;;;;;4977817;28;20004;-79
2022/06/17 03:43:20;;;;;;;;;;;18.50;99.90;;;;;;4978205;28;19917;-79
2022/06/17 03:45:51;;;;;;;;;;;18.30;99.90;;;;;;4978232;28;19969;-78
2022/06/17 03:48:27;;;;;;;;;;;18.20;99.90;;;;;;4977847;28;19929;-78
2022/06/17 03:50:53;;;;;;;;;;;18.20;99.90;;;;;;4978140;28;20002;-78
2022/06/17 03:53:18;;;;;;;;;;;18.10;99.90;;;;;;4978265;28;19953;-77
2022/06/17 03:55:44;;;;;;;;;;;18.20;99.90;;;;;;4978160;28;20460;-78
2022/06/17 03:58:10;;;;;;;;;;;18.20;99.90;;;;;;4977919;28;20323;-79
2022/06/17 04:00:48;;;;;;;;;;;18.10;99.90;;;;;;4977888;28;19910;-78
2022/06/17 04:03:16;;;;;;;;;;;18.20;99.90;;;;;;4978102;28;20037;-78
2022/06/17 04:05:43;;;;;;;;;;;18.10;99.90;;;;;;4977869;28;19914;-78
2022/06/17 04:08:10;;;;;;;;;;;18.10;99.90;;;;;;4960363;28;20389;-78
2022/06/17 04:10:36;;;;;;;;;;;17.90;99.90;;;;;;4977731;28;19993;-79
2022/06/17 04:13:02;;;;;;;;;;;17.90;99.90;;;;;;4977681;28;19933;-79
2022/06/17 04:15:46;;;;;;;;;;;17.90;99.90;;;;;;4977989;28;19957;-78
2022/06/17 04:18:12;;;;;;;;;;;17.90;99.90;;;;;;4977558;28;19910;-78
2022/06/17 04:20:38;;;;;;;;;;;18.10;99.90;;;;;;4977575;28;19910;-78
2022/06/17 04:23:09;;;;;;;;;;;18.00;99.90;;;;;;4977481;28;20298;-80
2022/06/17 04:25:47;;;;;;;;;;;17.90;99.90;;;;;;4977325;28;19915;-79
2022/06/17 04:28:16;;;;;;;;;;;17.90;99.90;;;;;;4977537;28;19917;-79
2022/06/17 04:30:45;;;;;;;;;;;17.90;99.90;;;;;;4977340;28;19914;-78
2022/06/17 04:33:17;;;;;;;;;;;17.80;99.90;;;;;;4977342;28;19910;-77
2022/06/17 04:35:43;;;;;;;;;;;17.70;99.90;;;;;;4976532;28;20408;-78
2022/06/17 04:38:08;;;;;;;;;;;17.90;99.90;;;;;;4977259;28;19910;-79
2022/06/17 04:40:34;;;;;;;;;;;18.10;99.90;;;;;;4977167;28;19914;-78
2022/06/17 04:43:02;;;;;;;;;;;18.30;99.90;;;;;;4959728;28;19957;-79
2022/06/17 04:45:29;;;;;;;;;;;18.30;99.90;;;;;;4977038;28;20290;-78
2022/06/17 04:47:55;;;;;;;;;;;18.30;99.90;;;;;;4976680;28;19925;-77
2022/06/17 04:50:22;;;;;;;;;;;18.50;99.90;;;;;;4977074;28;19914;-78
2022/06/17 04:52:49;;;;;;;;;;;18.50;99.90;;;;;;4976981;28;19910;-78
2022/06/17 04:55:28;;;;;;;;;;;18.50;99.90;;;;;;4977322;28;19914;-79
2022/06/17 04:57:54;;;;;;;;;;;18.40;99.90;;;;;;4977062;28;19937;-78
2022/06/17 05:00:24;;;;;;;;;;;18.40;99.90;;;;;;4976829;28;20371;-79
2022/06/17 05:02:50;;;;;;;;;;;18.40;99.90;;;;;;4976997;28;19910;-79
2022/06/17 05:05:20;;;;;;;;;;;18.60;99.90;;;;;;4976781;28;20406;-78
2022/06/17 05:07:47;;;;;;;;;;;18.70;99.90;;;;;;4976783;28;19910;-78
2022/06/17 05:10:16;;;;;;;;;;;18.80;99.90;;;;;;4976643;28;19910;-78
2022/06/17 05:12:51;;;;;;;;;;;18.90;99.90;;;;;;4976589;28;19958;-78
2022/06/17 05:15:18;;;;;;;;;;;18.90;99.90;;;;;;4976468;28;19911;-78
2022/06/17 05:17:44;;;;;;;;;;;18.90;99.90;;;;;;4976532;28;19946;-78
2022/06/17 05:20:12;;;;;;;;;;;19.00;99.90;;;;;;4976480;28;19949;-77
2022/06/17 05:22:39;;;;;;;;;;;19.10;99.90;;;;;;4976417;28;20307;-78
2022/06/17 05:25:10;;;;;;;;;;;19.40;99.90;;;;;;4976238;28;20358;-79
2022/06/17 05:27:35;;;;;;;;;;;19.40;99.90;;;;;;4958705;28;19910;-77
2022/06/17 05:30:01;;;;;;;;;;;19.50;99.90;;;;;;4976463;28;19917;-78
2022/06/17 05:32:27;;;;;;;;;;;19.70;99.90;;;;;;4976248;28;20366;-79
2022/06/17 05:34:52;;;;;;;;;;;19.70;99.90;;;;;;4976105;28;19911;-79
2022/06/17 05:37:18;;;;;;;;;;;19.80;99.90;;;;;;4976005;28;19911;-80
2022/06/17 05:39:43;;;;;;;;;;;19.80;99.90;;;;;;4976047;28;19921;-79
2022/06/17 05:42:10;;;;;;;;;;;20.00;99.90;;;;;;4976016;28;19910;-78
2022/06/17 05:44:35;;;;;;;;;;;20.10;99.90;;;;;;4975969;28;19922;-80
2022/06/17 05:47:01;;;;;;;;;;;20.20;99.90;;;;;;4974806;28;19910;-80
2022/06/17 05:49:26;;;;;;;;;;;20.30;99.90;;;;;;4975616;28;19926;-79
2022/06/17 05:51:52;;;;;;;;;;;20.40;99.90;;;;;;4975989;28;19910;-78
2022/06/17 05:54:18;;;;;;;;;;;20.40;99.90;;;;;;4975814;28;19918;-80
2022/06/17 05:56:44;;;;;;;;;;;20.40;99.90;;;;;;4975655;28;19914;-78
2022/06/17 05:59:10;;;;;;;;;;;20.40;99.90;;;;;;4975841;28;19917;-79
2022/06/17 06:01:36;;;;;;;;;;;20.60;99.90;;;;;;4975577;28;20016;-78
2022/06/17 06:04:01;;;;;;;;;;;20.80;99.90;;;;;;4975598;28;19911;-79
2022/06/17 06:06:27;;;;;;;;;;;20.90;99.90;;;;;;4975530;28;19921;-78
2022/06/17 06:08:53;;;;;;;;;;;20.90;99.90;;;;;;4975707;28;19910;-78
2022/06/17 06:11:18;;;;;;;;;;;21.10;99.90;;;;;;4975609;28;20276;-77
2022/06/17 06:13:44;;;;;;;;;;;21.20;99.90;;;;;;4975360;28;19920;-78
2022/06/17 06:16:10;;;;;;;;;;;21.40;99.90;;;;;;4975400;28;19910;-80
2022/06/17 06:18:36;;;;;;;;;;;21.50;99.90;;;;;;4975506;28;19910;-80
2022/06/17 06:21:04;;;;;;;;;;;21.60;99.90;;;;;;4975284;28;19957;-79
2022/06/17 06:23:36;;;;;;;;;;;21.80;99.90;;;;;;4975357;28;20331;-78
2022/06/17 06:26:03;;;;;;;;;;;21.90;99.90;;;;;;4975167;28;19915;-79
2022/06/17 06:28:29;;;;;;;;;;;22.10;99.90;;;;;;4975265;28;19933;-77
2022/06/17 06:30:59;;;;;;;;;;;22.30;99.80;;;;;;4975207;28;19914;-79
2022/06/17 06:33:25;;;;;;;;;;;22.50;99.30;;;;;;4975395;28;19969;-80
2022/06/17 06:35:51;;;;;;;;;;;22.40;99.90;;;;;;4975107;28;19914;-78
2022/06/17 06:38:16;;;;;;;;;;;22.40;99.90;;;;;;4975263;28;20302;-79
2022/06/17 06:40:42;;;;;;;;;;;22.60;99.90;;;;;;4975018;28;19910;-79
2022/06/17 06:43:18;;;;;;;;;;;22.90;99.90;;;;;;4975030;28;20386;-78
2022/06/17 06:45:45;;;;;;;;;;;23.20;98.00;;;;;;4974876;28;20374;-79
2022/06/17 06:48:11;;;;;;;;;;;23.20;96.20;;;;;;4974821;28;19925;-77
2022/06/17 06:50:38;;;;;;;;;;;23.40;95.40;;;;;;4975034;28;19910;-78
2022/06/17 06:53:04;;;;;;;;;;;23.50;94.00;;;;;;4974925;28;19910;-80
2022/06/17 06:55:30;;;;;;;;;;;23.70;93.40;;;;;;4975317;28;19917;-79
2022/06/17 06:57:58;;;;;;;;;;;23.80;92.50;;;;;;4974785;28;19917;-80
2022/06/17 07:00:28;;;;;;;;;;;24.00;91.80;;;;;;4974815;28;19910;-79
2022/06/17 07:02:54;;;;;;;;;;;24.10;91.00;;;;;;4974768;28;19914;-78
2022/06/17 07:05:20;;;;;;;;;;;24.10;91.10;;;;;;4974735;28;19920;-79
2022/06/17 07:07:45;;;;;;;;;;;24.40;89.80;;;;;;4974797;28;20263;-79
2022/06/17 07:10:13;;;;;;;;;;;24.30;88.40;;;;;;4974550;28;20327;-79
2022/06/17 07:12:38;;;;;;;;;;;24.40;89.50;;;;;;4974771;28;19942;-79
2022/06/17 07:15:04;;;;;;;;;;;24.50;89.40;;;;;;4974519;28;20008;-80
2022/06/17 07:17:30;;;;;;;;;;;24.60;87.50;;;;;;4974799;28;19956;-79
2022/06/17 07:19:56;;;;;;;;;;;24.60;88.30;;;;;;4974637;28;19910;-79
2022/06/17 07:22:22;;;;;;;;;;;24.80;89.10;;;;;;4974652;28;20282;-79
2022/06/17 07:24:48;;;;;;;;;;;25.10;86.40;;;;;;4974866;28;19914;-80
2022/06/17 07:27:14;;;;;;;;;;;25.20;84.60;;;;;;4975057;28;19910;-78
2022/06/17 07:29:39;;;;;;;;;;;25.20;82.70;;;;;;4974790;28;19993;-80
2022/06/17 07:32:05;;;;;;;;;;;25.40;82.50;;;;;;4957397;28;19910;-79
2022/06/17 07:34:31;;;;;;;;;;;25.50;81.80;;;;;;4974525;28;19914;-79
2022/06/17 07:39:56;;;;;;;;;;;25.70;81.90;;;;;;4974325;28;19918;-79
2022/06/17 07:42:23;;;;;;;;;;;25.80;81.60;;;;;;4974726;28;19917;-79
2022/06/17 07:44:48;;;;;;;;;;;26.10;81.30;;;;;;4974522;28;20288;-80
2022/06/17 07:47:15;;;;;;;;;;;26.80;80.50;;;;;;4974301;28;19926;-78
2022/06/17 07:49:41;;;;;;;;;;;28.50;76.10;;;;;;4973941;28;20341;-80
2022/06/17 07:52:07;;;;;;;;;;;30.40;69.10;;;;;;4974627;28;19997;-79
2022/06/17 07:54:33;;;;;;;;;;;31.50;65.70;;;;;;4957144;28;20041;-79
2022/06/17 07:56:58;;;;;;;;;;;32.50;62.60;;;;;;4974307;28;20009;-80
2022/06/17 07:59:24;;;;;;;;;;;33.10;60.00;;;;;;4974333;28;19914;-79
2022/06/17 08:01:50;;;;;;;;;;;33.70;59.20;;;;;;4974346;28;19917;-79
2022/06/17 08:04:15;;;;;;;;;;;33.70;58.60;;;;;;4974276;28;20262;-81
2022/06/17 08:06:41;;;;;;;;;;;34.30;57.00;;;;;;4974287;28;19994;-80
2022/06/17 08:09:06;;;;;;;;;;;34.10;56.00;;;;;;4974602;28;19933;-79
2022/06/17 08:11:32;;;;;;;;;;;34.30;56.10;;;;;;4976443;28;19910;-78
2022/06/17 08:13:57;;;;;;;;;;;34.30;55.60;;;;;;4977643;28;20355;-79
2022/06/17 08:16:23;;;;;;;;;;;35.10;55.40;;;;;;4977839;28;20004;-80
2022/06/17 08:18:49;;;;;;;;;;;35.10;55.10;;;;;;4978078;28;19913;-79
2022/06/17 08:21:14;;;;;;;;;;;35.30;54.90;;;;;;4960070;28;19910;-79
2022/06/17 08:23:40;;;;;;;;;;;35.50;54.00;;;;;;4977367;28;19937;-81
2022/06/17 08:26:06;;;;;;;;;;;35.60;53.50;;;;;;4977364;28;20017;-79
2022/06/17 08:28:31;;;;;;;;;;;35.20;53.20;;;;;;4977405;28;19910;-79
2022/06/17 08:30:57;;;;;;;;;;;35.20;54.40;;;;;;4977269;28;19933;-78
2022/06/17 08:33:28;;;;;;;;;;;35.00;54.30;;;;;;4977472;28;19914;-79
2022/06/17 08:35:55;;;;;;;;;;;35.40;53.80;;;;;;4977264;28;19914;-79
2022/06/17 08:38:25;;;;;;;;;;;35.50;53.60;;;;;;4977175;28;19910;-78
2022/06/17 08:40:53;;;;;;;;;;;35.80;53.30;;;;;;4977159;28;19917;-79
2022/06/17 08:43:34;;;;;;;;;;;34.90;53.70;;;;;;4977211;28;19917;-78
2022/06/17 08:46:06;;;;;;;;;;;35.40;53.70;;;;;;4976942;28;19914;-80
2022/06/17 08:48:50;;;;;;;;;;;35.40;53.40;;;;;;4976680;28;19922;-80
2022/06/17 08:51:40;;;;;;;;;;;35.80;52.70;;;;;;4977106;28;19911;-78
2022/06/17 08:54:09;;;;;;;;;;;35.90;52.90;;;;;;4977101;28;19914;-79
2022/06/17 08:56:54;;;;;;;;;;;35.70;53.10;;;;;;4976847;28;20275;-78
2022/06/17 08:59:20;;;;;;;;;;;35.80;52.70;;;;;;4956141;28;19910;-80
2022/06/17 09:01:53;;;;;;;;;;;36.20;52.50;;;;;;4976947;28;19918;-79
2022/06/17 09:04:29;;;;;;;;;;;36.10;52.60;;;;;;4976949;28;19972;-79
2022/06/17 09:07:04;;;;;;;;;;;36.30;51.70;;;;;;4976946;28;20397;-79
2022/06/17 09:09:42;;;;;;;;;;;36.30;52.10;;;;;;4976729;28;19910;-79
2022/06/17 09:12:14;;;;;;;;;;;36.10;52.30;;;;;;4976635;28;20028;-79
2022/06/17 09:14:39;;;;;;;;;;;36.50;52.60;;;;;;4976824;28;19918;-79
2022/06/17 09:17:20;;;;;;;;;;;36.50;52.10;;;;;;4976489;28;19910;-79
2022/06/17 09:19:46;;;;;;;;;;;36.80;51.00;;;;;;4976554;28;19921;-79
2022/06/17 09:22:30;;;;;;;;;;;36.30;51.40;;;;;;4976029;28;19910;-78
2022/06/17 09:24:59;;;;;;;;;;;36.80;51.40;;;;;;4976212;28;19952;-78
2022/06/17 09:27:45;;;;;;;;;;;37.20;51.30;;;;;;4976252;28;19958;-78
2022/06/17 09:30:18;;;;;;;;;;;37.30;50.70;;;;;;4975716;28;19910;-79
2022/06/17 09:32:50;;;;;;;;;;;37.30;50.80;;;;;;4976109;28;19964;-78
2022/06/17 09:35:15;;;;;;;;;;;37.50;50.70;;;;;;4976187;28;19911;-80
2022/06/17 09:37:44;;;;;;;;;;;37.80;50.80;;;;;;4976260;28;19917;-79
2022/06/17 09:40:20;;;;;;;;;;;38.20;49.90;;;;;;4976044;28;19917;-79
2022/06/17 09:43:08;;;;;;;;;;;38.60;49.50;;;;;;4976041;28;19917;-80
2022/06/17 09:45:40;;;;;;;;;;;38.50;50.10;;;;;;4976017;28;19954;-79
2022/06/17 09:48:25;;;;;;;;;;;38.30;49.50;;;;;;4975792;28;19918;-80
2022/06/17 09:51:17;;;;;;;;;;;38.50;49.90;;;;;;4975746;28;20323;-78
2022/06/17 09:53:56;;;;;;;;;;;38.40;49.80;;;;;;4960266;28;19910;-78
2022/06/17 09:56:37;;;;;;;;;;;38.40;49.50;;;;;;4976198;28;20001;-79
2022/06/17 09:59:07;;;;;;;;;;;38.10;49.80;;;;;;4975835;28;19910;-78
2022/06/17 10:01:33;;;;;;;;;;;37.90;49.20;;;;;;4975717;28;19911;-78
2022/06/17 10:04:00;;;;;;;;;;;38.30;50.00;;;;;;4975839;28;19989;-78
2022/06/17 10:06:44;;;;;;;;;;;38.80;49.20;;;;;;4975716;28;20040;-79
2022/06/17 10:09:18;;;;;;;;;;;38.00;49.70;;;;;;4958198;28;19911;-79
2022/06/17 10:11:53;;;;;;;;;;;38.20;48.50;;;;;;4975717;28;20005;-79
2022/06/17 10:14:35;;;;;;;;;;;38.90;49.10;;;;;;4975545;28;19910;-80
2022/06/17 10:19:50;;;;;;;;;;;39.20;48.40;;;;;;4975191;28;19917;-80
2022/06/17 10:22:15;;;;;;;;;;;38.90;48.20;;;;;;4957975;28;19914;-78
2022/06/17 10:24:57;;;;;;;;;;;39.70;48.30;;;;;;4975458;28;20338;-79
2022/06/17 10:27:37;;;;;;;;;;;39.80;47.10;;;;;;4975247;28;19910;-78
2022/06/17 10:30:08;;;;;;;;;;;40.00;47.20;;;;;;4975374;28;19910;-78
2022/06/17 10:32:36;;;;;;;;;;;40.10;47.40;;;;;;4975272;28;20426;-80
2022/06/17 10:35:03;;;;;;;;;;;39.90;46.40;;;;;;4974726;28;20366;-78
2022/06/17 10:37:30;;;;;;;;;;;40.30;46.50;;;;;;4975237;28;19910;-79
2022/06/17 10:39:56;;;;;;;;;;;39.90;47.20;;;;;;4975057;28;19946;-80
2022/06/17 10:42:23;;;;;;;;;;;40.30;46.50;;;;;;4975140;28;19972;-78
2022/06/17 10:44:51;;;;;;;;;;;39.60;46.20;;;;;;4975036;28;19914;-79
2022/06/17 10:47:36;;;;;;;;;;;39.80;46.70;;;;;;4974919;28;19965;-78
2022/06/17 10:50:10;;;;;;;;;;;40.50;46.50;;;;;;4975379;28;19923;-78
2022/06/17 10:52:37;;;;;;;;;;;39.70;45.90;;;;;;4975072;28;19932;-80
2022/06/17 10:55:03;;;;;;;;;;;40.10;46.80;;;;;;4974897;28;20430;-80
2022/06/17 10:57:31;;;;;;;;;;;40.50;45.50;;;;;;4974846;28;20366;-78
2022/06/17 10:59:57;;;;;;;;;;;40.80;45.50;;;;;;4975144;28;20002;-78
2022/06/17 11:02:25;;;;;;;;;;;41.20;45.50;;;;;;4974806;28;19946;-79
2022/06/17 11:04:52;;;;;;;;;;;41.00;45.80;;;;;;4974691;28;19921;-79
2022/06/17 11:07:21;;;;;;;;;;;42.00;45.00;;;;;;4974463;28;19910;-79
2022/06/17 11:09:49;;;;;;;;;;;42.50;44.80;;;;;;4954482;28;19918;-80
2022/06/17 11:12:21;;;;;;;;;;;42.40;43.90;;;;;;4961336;28;19915;-80
2022/06/17 11:14:47;;;;;;;;;;;42.40;44.50;;;;;;4964944;28;19957;-79
2022/06/17 11:17:30;;;;;;;;;;;42.40;44.10;;;;;;4973101;28;19949;-79
2022/06/17 11:19:57;;;;;;;;;;;42.50;43.70;;;;;;4974963;28;19910;-80
2022/06/17 11:22:35;;;;;;;;;;;42.50;43.50;;;;;;4974697;28;19965;-79
2022/06/17 11:25:04;;;;;;;;;;;42.00;44.00;;;;;;4975044;28;20344;-80
2022/06/17 11:27:39;;;;;;;;;;;41.60;43.50;;;;;;4974779;28;19961;-79
2022/06/17 11:30:18;;;;;;;;;;;41.80;42.80;;;;;;4974930;28;19993;-78
2022/06/17 11:32:45;;;;;;;;;;;41.60;43.30;;;;;;4973091;28;20012;-78
2022/06/17 11:35:18;;;;;;;;;;;42.10;43.40;;;;;;4974919;28;19910;-79
2022/06/17 11:37:45;;;;;;;;;;;42.10;42.70;;;;;;4974539;28;19957;-79
2022/06/17 11:40:15;;;;;;;;;;;43.00;43.60;;;;;;4974470;28;19914;-79
2022/06/17 11:42:43;;;;;;;;;;;43.10;43.30;;;;;;4974484;28;20307;-78
2022/06/17 11:45:13;;;;;;;;;;;43.40;42.70;;;;;;4976119;28;19914;-78
2022/06/17 11:47:43;;;;;;;;;;;43.00;42.70;;;;;;4960495;28;20387;-79
2022/06/17 11:50:14;;;;;;;;;;;43.50;42.20;;;;;;4978135;28;20392;-80
2022/06/17 11:52:40;;;;;;;;;;;44.00;41.90;;;;;;4978564;28;19910;-77
2022/06/17 11:55:06;;;;;;;;;;;44.40;41.20;;;;;;4978241;28;20392;-78
2022/06/17 11:57:36;;;;;;;;;;;44.30;41.70;;;;;;4978139;28;19917;-78
2022/06/17 12:00:18;;;;;;;;;;;43.50;41.10;;;;;;4978087;28;20382;-80
2022/06/17 12:02:52;;;;;;;;;;;43.70;40.90;;;;;;4978099;28;19910;-82
2022/06/17 12:05:21;;;;;;;;;;;43.90;39.90;;;;;;4978020;28;19915;-80
2022/06/17 12:07:52;;;;;;;;;;;43.30;41.20;;;;;;4977843;28;20370;-80
2022/06/17 12:10:36;;;;;;;;;;;43.50;40.60;;;;;;4978089;28;19938;-80
2022/06/17 12:13:11;;;;;;;;;;;44.20;40.10;;;;;;4977648;28;20357;-80
2022/06/17 12:15:40;;;;;;;;;;;42.50;40.40;;;;;;4977741;28;19910;-79
2022/06/17 12:18:11;;;;;;;;;;;43.50;41.30;;;;;;4977600;28;19917;-79
2022/06/17 12:20:43;;;;;;;;;;;43.50;40.40;;;;;;4958531;28;20001;-79
2022/06/17 12:23:24;;;;;;;;;;;43.10;40.90;;;;;;4958500;29;20001;-81
2022/06/17 12:25:58;;;;;;;;;;;43.40;41.10;;;;;;4958407;29;20017;-79
2022/06/17 12:28:32;;;;;;;;;;;43.80;40.40;;;;;;4958137;29;20006;-81
2022/06/17 12:31:03;;;;;;;;;;;44.20;39.60;;;;;;4958531;29;19911;-79
2022/06/17 12:33:32;;;;;;;;;;;44.60;39.50;;;;;;4940619;29;19911;-80
2022/06/17 12:36:03;;;;;;;;;;;44.50;38.90;;;;;;4958081;29;19917;-78
2022/06/17 12:38:37;;;;;;;;;;;44.20;39.60;;;;;;4958241;29;19910;-81
2022/06/17 12:41:06;;;;;;;;;;;45.50;39.50;;;;;;4958304;29;19911;-81
2022/06/17 12:43:37;;;;;;;;;;;45.10;39.00;;;;;;4958163;29;20459;-79
2022/06/17 12:46:04;;;;;;;;;;;44.90;39.30;;;;;;4957709;29;20334;-81
2022/06/17 12:48:39;;;;;;;;;;;44.70;38.50;;;;;;4957517;29;20307;-80
2022/06/17 12:54:20;;;;;;;;;;;45.00;38.60;;;;;;4957828;29;19918;-81
2022/06/17 12:57:00;;;;;;;;;;;45.40;38.20;;;;;;4957121;28;19911;-79
2022/06/17 12:59:29;;;;;;;;;;;45.50;38.30;;;;;;4957805;29;20001;-78
2022/06/17 13:01:54;;;;;;;;;;;46.30;38.40;;;;;;4957717;29;19921;-80
2022/06/17 13:04:39;;;;;;;;;;;46.40;37.80;;;;;;4957567;29;20287;-78
2022/06/17 13:07:14;;;;;;;;;;;46.90;37.80;;;;;;4957444;29;19922;-80
2022/06/17 13:12:55;;;;;;;;;;;46.00;37.70;;;;;;4957146;29;19917;-81
2022/06/17 13:15:23;;;;;;;;;;;45.60;38.00;;;;;;4957447;29;20428;-79
2022/06/17 13:18:07;;;;;;;;;;;46.10;37.40;;;;;;4957342;29;19911;-80
2022/06/17 13:20:40;;;;;;;;;;;46.10;37.80;;;;;;4957257;29;19910;-80
2022/06/17 13:23:14;;;;;;;;;;;46.90;37.20;;;;;;4957459;29;19910;-80
2022/06/17 13:25:56;;;;;;;;;;;46.30;36.80;;;;;;4957305;29;19921;-82
2022/06/17 13:28:28;;;;;;;;;;;46.50;37.30;;;;;;4957153;29;19917;-81
2022/06/17 13:30:57;;;;;;;;;;;46.60;37.20;;;;;;4957506;29;19911;-82
2022/06/17 13:33:28;;;;;;;;;;;47.00;36.30;;;;;;4957374;29;19910;-81
2022/06/17 13:35:57;;;;;;;;;;;47.20;36.60;;;;;;4957094;29;19911;-80
2022/06/17 13:38:37;;;;;;;;;;;46.90;36.60;;;;;;4957139;29;19996;-80
2022/06/17 13:41:09;;;;;;;;;;;45.80;37.70;;;;;;4957406;29;19910;-79
2022/06/17 13:43:39;;;;;;;;;;;45.50;37.00;;;;;;4957024;29;19915;-81
2022/06/17 13:46:11;;;;;;;;;;;45.80;37.00;;;;;;4956773;29;19925;-81
2022/06/17 13:48:50;;;;;;;;;;;46.40;37.00;;;;;;4956619;29;19923;-81
2022/06/17 13:51:25;;;;;;;;;;;46.20;36.80;;;;;;4957206;29;19915;-82
2022/06/17 13:54:02;;;;;;;;;;;46.30;36.90;;;;;;4956817;29;19962;-80
2022/06/17 13:56:40;;;;;;;;;;;46.70;36.10;;;;;;4956852;29;19946;-80
2022/06/17 13:59:08;;;;;;;;;;;47.60;36.10;;;;;;4957226;29;20382;-80
2022/06/17 14:01:33;;;;;;;;;;;47.40;36.60;;;;;;4956645;29;19911;-81
2022/06/17 14:03:59;;;;;;;;;;;47.30;36.30;;;;;;4956746;29;19917;-80
2022/06/17 14:06:29;;;;;;;;;;;46.80;35.70;;;;;;4956375;29;19925;-81
2022/06/17 14:08:56;;;;;;;;;;;47.00;36.10;;;;;;4955545;28;19921;-80
2022/06/17 14:11:41;;;;;;;;;;;46.80;36.10;;;;;;4956589;29;19916;-79
2022/06/17 14:14:19;;;;;;;;;;;46.20;36.00;;;;;;4956445;29;20363;-81
2022/06/17 14:16:44;;;;;;;;;;;45.40;36.10;;;;;;4956420;29;19969;-79
2022/06/17 14:19:15;;;;;;;;;;;47.20;35.90;;;;;;4956611;29;20307;-80
2022/06/17 14:21:46;;;;;;;;;;;47.90;35.70;;;;;;4956360;29;19991;-81
2022/06/17 14:24:14;;;;;;;;;;;48.30;35.50;;;;;;4956319;29;19917;-81
2022/06/17 14:26:39;;;;;;;;;;;47.50;35.10;;;;;;4956358;29;19914;-79
2022/06/17 14:29:12;;;;;;;;;;;47.30;35.50;;;;;;4956436;29;19910;-81
2022/06/17 14:31:39;;;;;;;;;;;47.20;36.00;;;;;;4956169;29;20331;-82
2022/06/17 14:34:16;;;;;;;;;;;47.10;36.40;;;;;;4956170;29;19915;-80
2022/06/17 14:36:48;;;;;;;;;;;47.70;35.80;;;;;;4956025;29;19962;-80
2022/06/17 14:39:32;;;;;;;;;;;48.10;35.80;;;;;;4956020;29;20383;-80
2022/06/17 14:42:24;;;;;;;;;;;48.50;35.80;;;;;;4955857;29;19910;-80
2022/06/17 14:45:10;;;;;;;;;;;49.40;35.40;;;;;;4956157;29;20375;-80
2022/06/17 14:47:41;;;;;;;;;;;49.50;35.30;;;;;;4956356;29;19910;-79